Time;durP1;ratioP1;P1;durP2;ratioP2;P2;SDS_P1;SDS_P2;PMS_P1;PMS_P2;Temp;Humidity;BMP_temperature;BMP_pressure;BME280_temperature;BME280_humidity;BME280_pressure;Samples;Min_cycle;Max_cycle;Signal;HPM_P1;HPM_P2
2022/09/15 00:02:14;;;;;;;5.70;1.88;;;;;;;;;;4942427;28;20102;-66
2022/09/15 00:04:39;;;;;;;6.35;1.92;;;;;;;;;;4946299;28;20046;-64
2022/09/15 00:07:06;;;;;;;6.25;1.88;;;;;;;;;;4945474;28;20051;-66
2022/09/15 00:09:31;;;;;;;5.53;2.08;;;;;;;;;;4938176;28;20055;-69
2022/09/15 00:11:57;;;;;;;7.28;1.95;;;;;;;;;;4944206;28;20517;-64
2022/09/15 00:14:23;;;;;;;7.55;2.05;;;;;;;;;;4943734;28;20052;-68
2022/09/15 00:16:49;;;;;;;6.20;2.00;;;;;;;;;;4943567;28;20054;-64
2022/09/15 00:19:15;;;;;;;4.05;1.80;;;;;;;;;;4944087;28;20227;-65
2022/09/15 00:21:41;;;;;;;6.95;2.00;;;;;;;;;;4943814;28;20439;-65
2022/09/15 00:24:08;;;;;;;6.20;2.25;;;;;;;;;;4959240;28;20697;-64
2022/09/15 00:26:34;;;;;;;3.25;1.60;;;;;;;;;;4943225;28;20541;-66
2022/09/15 00:29:02;;;;;;;8.63;2.00;;;;;;;;;;4942534;28;20409;-66
2022/09/15 00:31:30;;;;;;;5.10;1.83;;;;;;;;;;4939756;28;20054;-65
2022/09/15 00:33:58;;;;;;;7.05;1.98;;;;;;;;;;4946256;28;20050;-66
2022/09/15 00:36:25;;;;;;;3.95;1.80;;;;;;;;;;4944203;28;20421;-65
2022/09/15 00:38:51;;;;;;;7.78;2.00;;;;;;;;;;4942477;28;20043;-67
2022/09/15 00:41:19;;;;;;;4.07;1.60;;;;;;;;;;4945327;28;20043;-65
2022/09/15 00:43:57;;;;;;;5.05;1.85;;;;;;;;;;4937180;28;20755;-67
2022/09/15 00:46:29;;;;;;;5.32;1.90;;;;;;;;;;4942279;28;20043;-64
2022/09/15 00:48:58;;;;;;;3.00;1.75;;;;;;;;;;4941929;28;20453;-67
2022/09/15 00:51:50;;;;;;;7.88;2.03;;;;;;;;;;4941887;28;20071;-67
2022/09/15 00:54:51;;;;;;;3.67;1.60;;;;;;;;;;4942133;28;20043;-66
2022/09/15 00:57:38;;;;;;;3.13;1.70;;;;;;;;;;4941330;28;20051;-66
2022/09/15 01:00:08;;;;;;;2.97;1.58;;;;;;;;;;4941547;28;20059;-65
2022/09/15 01:02:35;;;;;;;6.07;1.63;;;;;;;;;;4942361;28;20047;-65
2022/09/15 01:05:06;;;;;;;5.47;1.67;;;;;;;;;;4944815;28;20131;-65
2022/09/15 01:07:42;;;;;;;2.35;1.42;;;;;;;;;;4943940;28;20070;-65
2022/09/15 01:10:14;;;;;;;3.67;1.50;;;;;;;;;;4941764;28;20086;-66
2022/09/15 01:12:41;;;;;;;4.65;1.45;;;;;;;;;;4943054;28;20052;-64
2022/09/15 01:15:07;;;;;;;3.72;1.40;;;;;;;;;;4943230;28;20543;-66
2022/09/15 01:18:22;;;;;;;5.25;1.73;;;;;;;;;;4945259;28;20178;-64
2022/09/15 01:21:16;;;;;;;2.63;1.40;;;;;;;;;;4937239;28;20123;-65
2022/09/15 01:24:01;;;;;;;6.25;1.80;;;;;;;;;;4943930;28;20051;-64
2022/09/15 01:26:33;;;;;;;3.30;1.45;;;;;;;;;;4951453;28;20059;-65
2022/09/15 01:29:17;;;;;;;2.55;1.40;;;;;;;;;;4947300;28;20114;-71
2022/09/15 01:35:12;;;;;;;4.47;1.40;;;;;;;;;;4943569;28;19937;-64
2022/09/15 01:37:45;;;;;;;3.42;1.50;;;;;;;;;;4943566;28;20047;-65
2022/09/15 01:40:13;;;;;;;5.03;1.40;;;;;;;;;;4950060;28;20405;-64
2022/09/15 01:42:42;;;;;;;5.80;1.33;;;;;;;;;;4944515;28;20074;-65
2022/09/15 01:45:15;;;;;;;6.05;1.50;;;;;;;;;;4947204;28;20055;-66
2022/09/15 01:47:41;;;;;;;5.35;1.58;;;;;;;;;;4948270;28;20054;-65
2022/09/15 01:50:16;;;;;;;6.07;1.55;;;;;;;;;;4943115;28;20051;-65
2022/09/15 01:52:45;;;;;;;5.75;1.70;;;;;;;;;;4940273;28;20043;-64
2022/09/15 01:55:19;;;;;;;7.00;1.60;;;;;;;;;;4945174;28;20047;-63
2022/09/15 01:57:45;;;;;;;3.33;1.40;;;;;;;;;;4944032;28;20130;-65
2022/09/15 02:00:11;;;;;;;6.72;1.50;;;;;;;;;;4944602;28;20567;-64
2022/09/15 02:02:43;;;;;;;3.65;1.52;;;;;;;;;;4938647;28;20053;-64
2022/09/15 02:05:24;;;;;;;7.28;1.77;;;;;;;;;;4947710;28;20055;-64
2022/09/15 02:08:08;;;;;;;5.93;1.67;;;;;;;;;;4942915;28;20062;-65
2022/09/15 02:10:52;;;;;;;4.45;1.45;;;;;;;;;;4943177;28;20140;-65
2022/09/15 02:13:29;;;;;;;5.65;1.65;;;;;;;;;;4944750;28;20162;-64
2022/09/15 02:15:59;;;;;;;5.47;1.42;;;;;;;;;;4940995;28;20527;-65
2022/09/15 02:18:46;;;;;;;3.13;1.35;;;;;;;;;;4944555;28;20078;-67
2022/09/15 02:21:22;;;;;;;4.53;1.30;;;;;;;;;;4942492;28;20094;-63
2022/09/15 02:23:53;;;;;;;4.70;1.60;;;;;;;;;;4946945;28;20054;-63
2022/09/15 02:26:23;;;;;;;5.25;1.42;;;;;;;;;;4944796;28;20047;-66
2022/09/15 02:28:51;;;;;;;5.50;1.60;;;;;;;;;;4945472;28;20467;-64
2022/09/15 02:31:20;;;;;;;5.55;1.42;;;;;;;;;;4939311;28;20204;-62
2022/09/15 02:34:14;;;;;;;4.75;1.80;;;;;;;;;;4943325;28;20058;-65
2022/09/15 02:36:41;;;;;;;3.85;1.55;;;;;;;;;;4940819;28;20493;-64
2022/09/15 02:39:12;;;;;;;4.72;1.67;;;;;;;;;;4945446;28;20433;-65
2022/09/15 02:41:38;;;;;;;3.92;1.35;;;;;;;;;;4941396;28;20093;-65
2022/09/15 02:44:04;;;;;;;4.85;1.52;;;;;;;;;;4945324;28;20058;-64
2022/09/15 02:46:30;;;;;;;4.82;1.48;;;;;;;;;;4943645;28;20061;-64
2022/09/15 02:48:56;;;;;;;3.97;1.55;;;;;;;;;;4948137;28;20059;-70
2022/09/15 02:51:22;;;;;;;4.43;1.50;;;;;;;;;;4943820;28;20049;-64
2022/09/15 02:53:48;;;;;;;3.60;1.60;;;;;;;;;;4944711;28;20055;-65
2022/09/15 02:56:15;;;;;;;6.20;1.63;;;;;;;;;;4943787;28;20055;-64
2022/09/15 02:58:42;;;;;;;5.07;1.77;;;;;;;;;;4942462;28;20535;-63
2022/09/15 03:01:13;;;;;;;5.07;1.67;;;;;;;;;;4942376;28;20471;-63
2022/09/15 03:03:40;;;;;;;4.90;1.45;;;;;;;;;;4944881;28;20142;-64
2022/09/15 03:06:19;;;;;;;5.43;1.70;;;;;;;;;;4944169;28;20137;-65
2022/09/15 03:08:57;;;;;;;5.22;1.88;;;;;;;;;;4943859;28;20051;-65
2022/09/15 03:11:25;;;;;;;3.88;1.60;;;;;;;;;;4943210;28;20066;-63
2022/09/15 03:13:57;;;;;;;4.22;1.70;;;;;;;;;;4948053;28;20525;-63
2022/09/15 03:16:23;;;;;;;4.85;1.88;;;;;;;;;;4943659;28;20051;-66
2022/09/15 03:18:50;;;;;;;8.98;1.70;;;;;;;;;;4944969;28;20459;-64
2022/09/15 03:21:17;;;;;;;5.03;1.67;;;;;;;;;;4939950;28;20062;-64
2022/09/15 03:23:44;;;;;;;5.18;1.90;;;;;;;;;;4957773;28;20053;-64
2022/09/15 03:26:10;;;;;;;6.72;1.50;;;;;;;;;;4945358;28;20059;-64
2022/09/15 03:28:37;;;;;;;8.65;1.90;;;;;;;;;;4947488;28;20055;-68
2022/09/15 03:31:05;;;;;;;5.35;1.90;;;;;;;;;;4943640;28;20046;-64
2022/09/15 03:33:30;;;;;;;7.47;2.15;;;;;;;;;;4946682;28;20044;-65
2022/09/15 03:35:57;;;;;;;4.85;1.73;;;;;;;;;;4943701;28;20043;-63
2022/09/15 03:38:23;;;;;;;4.32;1.65;;;;;;;;;;4945269;28;20054;-65
2022/09/15 03:40:59;;;;;;;7.75;1.63;;;;;;;;;;4940415;28;20571;-64
2022/09/15 03:43:25;;;;;;;6.85;1.40;;;;;;;;;;4947935;28;20054;-65
2022/09/15 03:45:53;;;;;;;7.82;2.13;;;;;;;;;;4943516;28;20190;-66
2022/09/15 03:48:18;;;;;;;6.97;1.70;;;;;;;;;;4946100;28;20071;-64
2022/09/15 03:50:45;;;;;;;6.05;1.55;;;;;;;;;;4941714;28;20059;-64
2022/09/15 03:53:10;;;;;;;2.95;1.40;;;;;;;;;;4943622;28;20142;-66
2022/09/15 03:55:36;;;;;;;6.18;1.73;;;;;;;;;;4941410;28;20059;-65
2022/09/15 03:58:02;;;;;;;4.00;1.40;;;;;;;;;;4944465;28;20105;-66
2022/09/15 04:00:28;;;;;;;5.95;1.63;;;;;;;;;;4940162;28;20477;-65
2022/09/15 04:02:54;;;;;;;5.93;1.48;;;;;;;;;;4941385;28;20050;-65
2022/09/15 04:05:20;;;;;;;2.92;1.40;;;;;;;;;;4940289;28;20055;-65
2022/09/15 04:07:45;;;;;;;4.35;1.75;;;;;;;;;;4937504;28;21483;-64
2022/09/15 04:10:11;;;;;;;7.60;1.67;;;;;;;;;;4942929;28;20485;-65
2022/09/15 04:12:37;;;;;;;3.70;1.35;;;;;;;;;;4941511;28;20618;-63
2022/09/15 04:15:03;;;;;;;4.68;1.38;;;;;;;;;;4941568;28;20055;-66
2022/09/15 04:17:29;;;;;;;4.30;1.42;;;;;;;;;;4944814;28;20064;-64
2022/09/15 04:19:55;;;;;;;11.15;1.50;;;;;;;;;;4941657;28;20044;-66
2022/09/15 04:22:21;;;;;;;3.00;1.38;;;;;;;;;;4955529;28;20063;-65
2022/09/15 04:24:48;;;;;;;2.55;1.30;;;;;;;;;;4942329;28;20054;-64
2022/09/15 04:27:15;;;;;;;4.80;1.98;;;;;;;;;;4944001;28;20053;-73
2022/09/15 04:29:42;;;;;;;4.28;1.67;;;;;;;;;;4939306;28;20158;-65
2022/09/15 04:32:08;;;;;;;3.65;1.83;;;;;;;;;;4939041;28;20047;-63
2022/09/15 04:34:34;;;;;;;5.35;1.50;;;;;;;;;;4941704;28;20549;-65
2022/09/15 04:37:01;;;;;;;4.22;1.63;;;;;;;;;;4949809;28;20050;-66
2022/09/15 04:39:27;;;;;;;3.85;1.30;;;;;;;;;;4942121;28;20047;-65
2022/09/15 04:41:53;;;;;;;6.30;1.50;;;;;;;;;;4939097;28;20047;-70
2022/09/15 04:44:19;;;;;;;3.65;1.40;;;;;;;;;;4940573;28;20035;-63
2022/09/15 04:46:45;;;;;;;4.03;1.52;;;;;;;;;;4943908;28;20091;-65
2022/09/15 04:49:11;;;;;;;4.00;1.65;;;;;;;;;;4945931;28;20065;-63
2022/09/15 04:51:37;;;;;;;3.35;1.80;;;;;;;;;;4941201;28;20078;-65
2022/09/15 04:54:03;;;;;;;4.30;1.52;;;;;;;;;;4940328;28;20076;-66
2022/09/15 04:56:29;;;;;;;2.67;1.60;;;;;;;;;;4942129;28;20066;-65
2022/09/15 04:58:57;;;;;;;5.00;1.40;;;;;;;;;;4944854;28;20047;-64
2022/09/15 05:01:29;;;;;;;5.35;1.98;;;;;;;;;;4942114;28;20054;-64
2022/09/15 05:03:55;;;;;;;6.15;1.83;;;;;;;;;;4946653;28;20449;-65
2022/09/15 05:06:23;;;;;;;7.57;1.65;;;;;;;;;;4945113;28;20102;-66
2022/09/15 05:08:51;;;;;;;6.78;1.65;;;;;;;;;;4950141;28;20583;-65
2022/09/15 05:11:18;;;;;;;3.95;1.50;;;;;;;;;;4941044;28;20051;-65
2022/09/15 05:13:45;;;;;;;5.47;1.65;;;;;;;;;;4938703;28;20073;-65
2022/09/15 05:16:12;;;;;;;7.55;1.70;;;;;;;;;;4948507;28;20067;-67
2022/09/15 05:18:40;;;;;;;6.35;1.88;;;;;;;;;;4949182;28;20560;-64
2022/09/15 05:21:08;;;;;;;5.18;1.70;;;;;;;;;;4943256;28;20058;-67
2022/09/15 05:23:35;;;;;;;3.50;1.60;;;;;;;;;;4941638;28;20559;-66
2022/09/15 05:26:04;;;;;;;4.22;1.48;;;;;;;;;;4945204;28;20448;-64
2022/09/15 05:28:34;;;;;;;7.47;2.05;;;;;;;;;;4948866;28;20047;-66
2022/09/15 05:31:01;;;;;;;3.67;1.35;;;;;;;;;;4968307;28;20139;-64
2022/09/15 05:33:27;;;;;;;7.05;1.95;;;;;;;;;;4960694;28;20063;-65
2022/09/15 05:35:59;;;;;;;8.25;2.13;;;;;;;;;;4946210;28;20039;-66
2022/09/15 05:38:28;;;;;;;6.53;1.90;;;;;;;;;;4944969;28;20047;-66
2022/09/15 05:40:54;;;;;;;4.50;1.88;;;;;;;;;;4942086;28;20089;-66
2022/09/15 05:43:20;;;;;;;8.80;2.15;;;;;;;;;;4943764;28;20051;-65
2022/09/15 05:45:55;;;;;;;5.25;2.03;;;;;;;;;;4948412;28;20109;-65
2022/09/15 05:48:21;;;;;;;10.13;1.92;;;;;;;;;;4953855;28;20039;-64
2022/09/15 05:50:49;;;;;;;6.55;1.80;;;;;;;;;;4947156;28;20576;-66
2022/09/15 05:53:14;;;;;;;8.82;1.88;;;;;;;;;;4943251;28;20396;-66
2022/09/15 05:55:40;;;;;;;9.05;1.83;;;;;;;;;;4942188;28;20388;-64
2022/09/15 05:58:06;;;;;;;3.55;1.58;;;;;;;;;;4940374;28;20137;-67
2022/09/15 06:00:33;;;;;;;4.55;1.60;;;;;;;;;;4941682;28;20051;-66
2022/09/15 06:02:59;;;;;;;5.85;1.92;;;;;;;;;;4941005;28;20118;-69
2022/09/15 06:05:25;;;;;;;10.02;2.03;;;;;;;;;;4948572;28;20047;-69
2022/09/15 06:07:54;;;;;;;10.80;1.80;;;;;;;;;;4946741;28;20047;-65
2022/09/15 06:10:23;;;;;;;10.85;1.90;;;;;;;;;;4945242;28;20405;-63
2022/09/15 06:12:52;;;;;;;7.35;1.75;;;;;;;;;;4941358;28;20051;-67
2022/09/15 06:15:19;;;;;;;8.82;1.73;;;;;;;;;;4941184;28;20090;-64
2022/09/15 06:17:46;;;;;;;10.32;2.20;;;;;;;;;;4941748;28;20474;-65
2022/09/15 06:20:12;;;;;;;8.60;2.08;;;;;;;;;;4944780;28;20408;-68
2022/09/15 06:22:38;;;;;;;6.68;1.80;;;;;;;;;;4942213;28;20058;-66
2022/09/15 06:25:05;;;;;;;10.65;1.88;;;;;;;;;;4945573;28;20130;-68
2022/09/15 06:27:31;;;;;;;7.63;2.08;;;;;;;;;;4942328;28;20043;-70
2022/09/15 06:29:57;;;;;;;8.40;2.17;;;;;;;;;;4945019;28;20475;-69
2022/09/15 06:32:23;;;;;;;6.47;1.77;;;;;;;;;;4944784;28;20133;-69
2022/09/15 06:34:49;;;;;;;7.15;2.42;;;;;;;;;;4932559;28;20610;-67
2022/09/15 06:37:15;;;;;;;8.23;1.80;;;;;;;;;;4934823;28;20111;-67
2022/09/15 06:39:44;;;;;;;3.85;1.88;;;;;;;;;;4947564;28;20047;-66
2022/09/15 06:42:10;;;;;;;5.75;2.20;;;;;;;;;;4950789;28;20047;-66
2022/09/15 06:44:36;;;;;;;9.30;2.22;;;;;;;;;;4949453;28;20047;-68
2022/09/15 06:47:03;;;;;;;12.07;2.33;;;;;;;;;;4960603;28;20112;-65
2022/09/15 06:49:30;;;;;;;10.55;2.72;;;;;;;;;;4953067;28;20039;-66
2022/09/15 06:51:56;;;;;;;8.93;2.35;;;;;;;;;;4951916;28;20117;-65
2022/09/15 06:54:23;;;;;;;10.43;2.28;;;;;;;;;;4953413;28;20055;-67
2022/09/15 06:56:49;;;;;;;14.30;2.20;;;;;;;;;;4951797;28;20061;-68
2022/09/15 06:59:15;;;;;;;13.70;2.58;;;;;;;;;;4967171;28;20067;-66
2022/09/15 07:01:52;;;;;;;10.23;3.30;;;;;;;;;;4949173;28;20560;-66
2022/09/15 07:04:18;;;;;;;16.60;3.70;;;;;;;;;;4956220;28;20054;-66
2022/09/15 07:06:44;;;;;;;20.20;5.45;;;;;;;;;;4951273;28;20061;-66
2022/09/15 07:09:11;;;;;;;20.85;6.03;;;;;;;;;;4950772;28;20134;-65
2022/09/15 07:11:37;;;;;;;20.15;6.03;;;;;;;;;;4951054;28;20079;-68
2022/09/15 07:14:03;;;;;;;25.00;6.65;;;;;;;;;;4952726;28;20051;-63
2022/09/15 07:16:29;;;;;;;14.13;6.05;;;;;;;;;;4951282;28;20145;-65
2022/09/15 07:18:57;;;;;;;24.25;6.13;;;;;;;;;;4950240;28;20143;-63
2022/09/15 07:21:23;;;;;;;17.02;5.50;;;;;;;;;;4948117;28;20081;-69
2022/09/15 07:23:49;;;;;;;17.52;7.05;;;;;;;;;;4950018;28;20051;-66
2022/09/15 07:26:19;;;;;;;14.35;6.53;;;;;;;;;;4954189;28;20051;-67
2022/09/15 07:28:48;;;;;;;18.58;4.88;;;;;;;;;;4950897;28;20087;-67
2022/09/15 07:31:17;;;;;;;17.35;5.28;;;;;;;;;;4951755;28;20043;-68
2022/09/15 07:33:43;;;;;;;19.83;4.85;;;;;;;;;;4948184;28;20039;-65
2022/09/15 07:36:10;;;;;;;15.65;5.45;;;;;;;;;;4948516;28;20098;-65
2022/09/15 07:38:42;;;;;;;20.38;4.68;;;;;;;;;;4948699;29;20032;-66
2022/09/15 07:41:29;;;;;;;17.33;3.35;;;;;;;;;;4941381;28;20054;-67
2022/09/15 07:43:57;;;;;;;10.85;3.33;;;;;;;;;;4941523;28;20109;-68
2022/09/15 07:46:25;;;;;;;13.43;2.58;;;;;;;;;;4950701;28;20054;-65
2022/09/15 07:48:55;;;;;;;11.07;2.55;;;;;;;;;;4960108;28;20086;-68
2022/09/15 07:51:21;;;;;;;15.65;2.70;;;;;;;;;;4945098;28;20383;-70
2022/09/15 07:53:48;;;;;;;9.95;2.22;;;;;;;;;;4945307;28;20051;-66
2022/09/15 07:56:18;;;;;;;12.82;2.60;;;;;;;;;;4950540;28;20055;-66
2022/09/15 07:58:45;;;;;;;10.82;2.45;;;;;;;;;;4950548;28;20109;-70
2022/09/15 08:01:11;;;;;;;11.80;2.60;;;;;;;;;;4957059;28;20053;-66
2022/09/15 08:03:45;;;;;;;9.07;2.40;;;;;;;;;;4948473;28;20047;-68
2022/09/15 08:06:12;;;;;;;9.73;2.10;;;;;;;;;;4961010;28;20051;-68
2022/09/15 08:08:39;;;;;;;7.80;2.30;;;;;;;;;;4946333;28;20047;-67
2022/09/15 08:11:11;;;;;;;11.88;2.20;;;;;;;;;;4944332;28;20059;-65
2022/09/15 08:13:37;;;;;;;12.18;1.83;;;;;;;;;;4948406;28;20047;-64
2022/09/15 08:16:08;;;;;;;7.20;1.75;;;;;;;;;;4956111;28;20109;-69
2022/09/15 08:18:34;;;;;;;8.05;1.65;;;;;;;;;;4949783;28;20082;-66
2022/09/15 08:21:05;;;;;;;13.18;2.08;;;;;;;;;;4937789;28;20055;-66
2022/09/15 08:23:31;;;;;;;17.15;2.45;;;;;;;;;;4948785;28;20055;-68
2022/09/15 08:25:57;;;;;;;8.50;1.55;;;;;;;;;;4948153;28;20051;-67
2022/09/15 08:28:23;;;;;;;13.70;1.63;;;;;;;;;;4949397;28;20182;-68
2022/09/15 08:30:48;;;;;;;13.68;1.88;;;;;;;;;;4950671;28;20134;-66
2022/09/15 08:33:14;;;;;;;6.53;1.95;;;;;;;;;;4949115;28;20043;-66
2022/09/15 08:35:40;;;;;;;9.43;2.22;;;;;;;;;;4948631;28;20449;-66
2022/09/15 08:38:06;;;;;;;12.93;2.22;;;;;;;;;;4948662;28;20047;-66
2022/09/15 08:40:36;;;;;;;9.20;2.25;;;;;;;;;;4949398;28;20052;-66
2022/09/15 08:43:11;;;;;;;9.00;2.30;;;;;;;;;;4949502;28;20055;-67
2022/09/15 08:45:48;;;;;;;13.90;2.97;;;;;;;;;;4949233;28;20040;-66
2022/09/15 08:48:17;;;;;;;7.25;2.40;;;;;;;;;;4962763;28;20055;-67
2022/09/15 08:50:46;;;;;;;15.40;2.00;;;;;;;;;;4946823;28;20583;-62
2022/09/15 08:53:24;;;;;;;8.25;2.20;;;;;;;;;;4962243;28;20393;-67
2022/09/15 08:56:04;;;;;;;9.07;1.73;;;;;;;;;;4950776;28;20276;-66
2022/09/15 08:58:36;;;;;;;8.45;1.83;;;;;;;;;;4952143;28;20122;-67
2022/09/15 09:01:30;;;;;;;8.40;1.80;;;;;;;;;;4946458;28;20051;-66
2022/09/15 09:04:28;;;;;;;5.35;1.67;;;;;;;;;;4938003;28;20051;-67
2022/09/15 09:07:20;;;;;;;7.95;1.73;;;;;;;;;;4937227;28;20047;-68
2022/09/15 09:09:57;;;;;;;6.10;2.40;;;;;;;;;;4948962;28;20054;-68
2022/09/15 09:12:41;;;;;;;8.48;1.90;;;;;;;;;;4949200;28;20047;-66
2022/09/15 09:15:19;;;;;;;5.88;1.55;;;;;;;;;;4980148;28;20390;-68
2022/09/15 09:17:58;;;;;;;5.05;2.03;;;;;;;;;;4948635;28;20436;-69
2022/09/15 09:20:57;;;;;;;9.23;2.15;;;;;;;;;;4949165;28;20494;-67
2022/09/15 09:23:27;;;;;;;6.47;1.58;;;;;;;;;;4948547;28;20489;-65
2022/09/15 09:25:55;;;;;;;12.38;1.75;;;;;;;;;;4948681;28;20326;-66
2022/09/15 09:28:33;;;;;;;8.30;2.30;;;;;;;;;;4948926;28;20493;-68
2022/09/15 09:31:06;;;;;;;7.50;1.95;;;;;;;;;;4948548;28;20509;-67
2022/09/15 09:33:42;;;;;;;6.93;1.80;;;;;;;;;;4948436;28;20051;-68
2022/09/15 09:36:10;;;;;;;4.00;1.65;;;;;;;;;;4948403;28;20053;-68
2022/09/15 09:38:39;;;;;;;7.35;1.80;;;;;;;;;;4948276;28;20035;-66
2022/09/15 09:41:11;;;;;;;6.15;2.00;;;;;;;;;;4949415;28;20402;-69
2022/09/15 09:43:37;;;;;;;5.80;2.00;;;;;;;;;;4948587;28;20055;-68
2022/09/15 09:46:16;;;;;;;5.22;2.08;;;;;;;;;;4952732;28;20134;-65
2022/09/15 09:48:51;;;;;;;5.50;1.80;;;;;;;;;;4964108;28;20048;-67
2022/09/15 09:51:54;;;;;;;7.13;1.83;;;;;;;;;;4953922;28;20070;-70
2022/09/15 09:54:24;;;;;;;8.38;1.80;;;;;;;;;;4952620;28;20129;-68
2022/09/15 09:56:52;;;;;;;7.55;1.65;;;;;;;;;;4954658;28;20058;-70
2022/09/15 09:59:42;;;;;;;5.50;1.70;;;;;;;;;;4945885;28;20398;-65
2022/09/15 10:02:11;;;;;;;7.78;2.10;;;;;;;;;;4946622;28;20238;-70
2022/09/15 10:04:47;;;;;;;6.80;1.75;;;;;;;;;;4947900;28;20090;-69
2022/09/15 10:07:16;;;;;;;7.35;1.98;;;;;;;;;;4939502;28;20267;-72
2022/09/15 10:09:54;;;;;;;5.22;2.30;;;;;;;;;;4952242;28;20070;-71
2022/09/15 10:12:37;;;;;;;9.20;2.00;;;;;;;;;;4952136;28;20050;-69
2022/09/15 10:15:06;;;;;;;7.78;1.73;;;;;;;;;;4951369;28;20075;-71
2022/09/15 10:17:35;;;;;;;8.98;1.75;;;;;;;;;;4959711;28;20055;-69
2022/09/15 10:20:03;;;;;;;6.13;1.70;;;;;;;;;;4949507;28;20517;-72
2022/09/15 10:22:35;;;;;;;11.52;2.03;;;;;;;;;;4953699;28;20051;-70
2022/09/15 10:25:21;;;;;;;4.93;1.67;;;;;;;;;;4951086;28;20099;-70
2022/09/15 10:28:10;;;;;;;6.13;2.22;;;;;;;;;;4951432;28;20061;-67
2022/09/15 10:30:37;;;;;;;3.50;1.60;;;;;;;;;;4951289;28;20496;-72
2022/09/15 10:33:26;;;;;;;6.72;1.67;;;;;;;;;;4951171;28;20397;-69
2022/09/15 10:35:54;;;;;;;7.25;1.75;;;;;;;;;;4965962;28;20493;-70
2022/09/15 10:38:36;;;;;;;5.93;1.88;;;;;;;;;;4950746;28;20062;-73
2022/09/15 10:41:08;;;;;;;8.70;1.80;;;;;;;;;;4951297;28;20538;-71
2022/09/15 10:43:47;;;;;;;6.13;1.65;;;;;;;;;;4951517;28;20121;-71
2022/09/15 10:46:22;;;;;;;4.70;1.45;;;;;;;;;;4941271;28;20118;-68
2022/09/15 10:49:17;;;;;;;7.30;1.30;;;;;;;;;;4960743;28;20043;-65
2022/09/15 10:51:45;;;;;;;6.55;1.38;;;;;;;;;;4961330;28;20130;-69
2022/09/15 10:54:33;;;;;;;6.45;1.73;;;;;;;;;;4950186;28;20049;-69
2022/09/15 10:57:28;;;;;;;3.03;1.50;;;;;;;;;;4950783;28;20063;-69
2022/09/15 11:00:05;;;;;;;4.78;1.55;;;;;;;;;;4929122;29;20083;-69
2022/09/15 11:02:54;;;;;;;4.75;1.65;;;;;;;;;;4929794;29;20209;-68
2022/09/15 11:05:51;;;;;;;4.82;1.45;;;;;;;;;;4931423;29;20565;-70
2022/09/15 11:08:53;;;;;;;4.65;1.60;;;;;;;;;;4932880;29;20125;-68
2022/09/15 11:11:40;;;;;;;5.47;1.63;;;;;;;;;;4930640;29;20047;-67
2022/09/15 11:14:32;;;;;;;6.97;1.60;;;;;;;;;;4929235;29;20057;-72
2022/09/15 11:17:21;;;;;;;5.20;1.42;;;;;;;;;;4926604;29;20082;-71
2022/09/15 11:20:11;;;;;;;6.03;1.75;;;;;;;;;;4944939;29;20046;-71
2022/09/15 11:22:44;;;;;;;13.25;1.77;;;;;;;;;;4935592;29;20048;-72
2022/09/15 11:25:16;;;;;;;;;;;;;;;;;;4929420;29;20070;-69
2022/09/15 11:27:49;;;;;;;3.38;1.20;;;;;;;;;;4928710;29;19926;-70
2022/09/15 11:30:22;;;;;;;5.72;1.50;;;;;;;;;;4929906;29;20056;-68
2022/09/15 11:33:11;;;;;;;4.15;1.55;;;;;;;;;;4930608;29;20088;-70
2022/09/15 11:36:17;;;;;;;6.28;1.60;;;;;;;;;;4932391;28;20075;-69
2022/09/15 11:38:51;;;;;;;5.40;1.40;;;;;;;;;;4949448;28;20085;-69
2022/09/15 11:41:27;;;;;;;5.47;1.95;;;;;;;;;;4941510;29;20106;-71
2022/09/15 11:44:13;;;;;;;3.90;1.23;;;;;;;;;;4949280;28;20260;-71
2022/09/15 11:47:17;;;;;;;3.55;1.48;;;;;;;;;;4955832;28;20050;-70
2022/09/15 11:49:43;;;;;;;5.03;1.38;;;;;;;;;;4948665;28;20039;-68
2022/09/15 11:52:27;;;;;;;4.28;1.35;;;;;;;;;;4949602;28;20552;-68
2022/09/15 11:55:30;;;;;;;3.28;1.40;;;;;;;;;;4950756;28;20106;-70
2022/09/15 11:58:17;;;;;;;2.85;1.20;;;;;;;;;;4944841;28;20117;-71
2022/09/15 12:01:12;;;;;;;4.82;1.30;;;;;;;;;;4949799;28;20051;-69
2022/09/15 12:04:00;;;;;;;4.07;1.38;;;;;;;;;;4950718;28;20067;-70
2022/09/15 12:06:33;;;;;;;4.50;1.40;;;;;;;;;;4966046;28;20047;-69
2022/09/15 12:09:01;;;;;;;5.05;1.50;;;;;;;;;;4948957;28;20536;-72
2022/09/15 12:11:34;;;;;;;8.60;1.48;;;;;;;;;;4951534;28;20071;-69
2022/09/15 12:14:03;;;;;;;3.80;1.40;;;;;;;;;;4952248;28;20046;-71
2022/09/15 12:16:30;;;;;;;3.47;1.42;;;;;;;;;;4951020;28;20305;-68
2022/09/15 12:19:04;;;;;;;6.63;1.60;;;;;;;;;;4949557;28;20043;-71
2022/09/15 12:21:40;;;;;;;3.35;1.20;;;;;;;;;;4943606;28;20089;-70
2022/09/15 12:24:33;;;;;;;6.03;1.27;;;;;;;;;;4952195;28;20103;-70
2022/09/15 12:27:00;;;;;;;3.40;1.30;;;;;;;;;;4968515;28;20051;-70
2022/09/15 12:29:26;;;;;;;3.15;1.10;;;;;;;;;;4951722;28;20486;-70
2022/09/15 12:32:22;;;;;;;4.60;1.33;;;;;;;;;;4953414;28;20051;-70
2022/09/15 12:34:58;;;;;;;3.53;1.20;;;;;;;;;;4951621;28;20051;-72
2022/09/15 12:37:28;;;;;;;4.00;1.30;;;;;;;;;;4949554;28;20527;-70
2022/09/15 12:39:55;;;;;;;3.03;1.10;;;;;;;;;;4950204;28;20436;-71
2022/09/15 12:42:23;;;;;;;7.57;1.50;;;;;;;;;;4948636;28;20043;-71
2022/09/15 12:44:57;;;;;;;4.97;1.17;;;;;;;;;;4949257;28;20055;-70
2022/09/15 12:47:27;;;;;;;4.32;1.35;;;;;;;;;;4955017;28;20053;-70
2022/09/15 12:49:57;;;;;;;3.90;1.30;;;;;;;;;;4949395;28;20126;-71
2022/09/15 12:52:24;;;;;;;3.67;1.30;;;;;;;;;;4948494;28;20094;-71
2022/09/15 12:54:59;;;;;;;3.05;1.13;;;;;;;;;;4949462;28;20178;-71
2022/09/15 12:57:33;;;;;;;3.15;1.42;;;;;;;;;;4948503;28;20065;-71
2022/09/15 13:00:17;;;;;;;;;;;;;;;;;;4949313;28;20055;-69
2022/09/15 13:02:46;;;;;;;6.72;1.40;;;;;;;;;;4948087;28;19937;-72
2022/09/15 13:05:41;;;;;;;3.30;1.15;;;;;;;;;;4949807;28;20477;-71
2022/09/15 13:08:17;;;;;;;4.57;1.35;;;;;;;;;;4958216;28;20044;-70
2022/09/15 13:11:13;;;;;;;6.65;1.25;;;;;;;;;;4939563;28;20070;-73
2022/09/15 13:13:49;;;;;;;4.53;1.23;;;;;;;;;;4948803;28;20052;-70
2022/09/15 13:16:50;;;;;;;9.20;1.42;;;;;;;;;;4948650;28;20531;-71
2022/09/15 13:19:22;;;;;;;5.05;1.10;;;;;;;;;;4950208;28;20054;-69
2022/09/15 13:22:28;;;;;;;4.47;1.30;;;;;;;;;;4952392;28;20428;-73
2022/09/15 13:25:09;;;;;;;4.05;1.10;;;;;;;;;;4949791;28;20048;-70
2022/09/15 13:27:45;;;;;;;2.00;1.17;;;;;;;;;;4951977;28;20043;-70
2022/09/15 13:30:20;;;;;;;6.05;1.15;;;;;;;;;;4952154;28;20351;-71
2022/09/15 13:33:00;;;;;;;2.60;1.15;;;;;;;;;;4951807;28;20557;-73
2022/09/15 13:35:44;;;;;;;5.53;1.50;;;;;;;;;;4952382;28;20057;-71
2022/09/15 13:38:29;;;;;;;4.15;1.10;;;;;;;;;;4952106;28;20059;-69
2022/09/15 13:41:17;;;;;;;4.15;1.20;;;;;;;;;;4948186;28;20051;-73
2022/09/15 13:43:55;;;;;;;6.28;1.20;;;;;;;;;;4952400;28;20117;-69
2022/09/15 13:46:40;;;;;;;2.88;0.80;;;;;;;;;;4955533;28;20261;-75
2022/09/15 13:49:43;;;;;;;5.45;1.30;;;;;;;;;;4952727;28;20043;-72
2022/09/15 13:52:21;;;;;;;3.97;1.10;;;;;;;;;;4953160;28;20054;-69
2022/09/15 13:55:11;;;;;;;4.18;1.30;;;;;;;;;;4953648;28;20122;-72
2022/09/15 13:57:42;;;;;;;3.83;1.20;;;;;;;;;;4952388;28;20078;-72
2022/09/15 14:00:23;;;;;;;3.17;1.17;;;;;;;;;;4952220;28;20047;-70
2022/09/15 14:02:55;;;;;;;5.70;1.40;;;;;;;;;;4951767;28;20058;-70
2022/09/15 14:05:22;;;;;;;5.32;1.15;;;;;;;;;;4938527;28;20050;-72
2022/09/15 14:08:08;;;;;;;4.68;1.27;;;;;;;;;;4953264;28;20126;-72
2022/09/15 14:10:49;;;;;;;7.20;1.35;;;;;;;;;;4969348;28;20606;-69
2022/09/15 14:13:18;;;;;;;12.63;1.42;;;;;;;;;;4953694;28;20043;-72
2022/09/15 14:16:25;;;;;;;1.83;1.00;;;;;;;;;;4952528;28;20090;-70
2022/09/15 14:18:53;;;;;;;5.10;1.45;;;;;;;;;;4956595;28;20055;-73
2022/09/15 14:21:22;;;;;;;3.15;1.17;;;;;;;;;;4953808;28;20179;-78
2022/09/15 14:23:51;;;;;;;8.43;1.75;;;;;;;;;;4951917;28;20074;-70
2022/09/15 14:26:19;;;;;;;8.00;1.60;;;;;;;;;;4950424;28;20043;-71
2022/09/15 14:28:51;;;;;;;6.93;1.40;;;;;;;;;;4952079;28;20513;-71
2022/09/15 14:31:26;;;;;;;6.80;1.58;;;;;;;;;;4942026;28;20138;-71
2022/09/15 14:33:53;;;;;;;8.48;2.00;;;;;;;;;;4949348;28;20044;-72
2022/09/15 14:36:24;;;;;;;11.32;2.13;;;;;;;;;;4951064;28;20401;-73
2022/09/15 14:39:11;;;;;;;6.72;1.80;;;;;;;;;;4951094;28;20048;-72
2022/09/15 14:41:38;;;;;;;4.72;1.83;;;;;;;;;;4952651;28;20098;-71
2022/09/15 14:44:27;;;;;;;8.25;1.83;;;;;;;;;;4948471;28;20052;-73
2022/09/15 14:46:54;;;;;;;6.28;1.75;;;;;;;;;;4949520;28;20908;-72
2022/09/15 14:49:21;;;;;;;6.18;1.83;;;;;;;;;;4981505;28;20055;-74
2022/09/15 14:51:50;;;;;;;7.75;1.70;;;;;;;;;;4951922;28;20129;-71
2022/09/15 14:54:31;;;;;;;7.50;2.13;;;;;;;;;;4950501;28;20062;-73
2022/09/15 14:57:01;;;;;;;7.40;1.65;;;;;;;;;;4949116;28;20051;-72
2022/09/15 14:59:33;;;;;;;3.95;1.40;;;;;;;;;;4951312;28;20058;-70
2022/09/15 15:02:05;;;;;;;3.53;1.80;;;;;;;;;;4968098;28;20050;-73
2022/09/15 15:04:56;;;;;;;7.05;1.85;;;;;;;;;;4951870;28;20050;-76
2022/09/15 15:07:26;;;;;;;8.35;1.88;;;;;;;;;;4953697;28;20047;-75
2022/09/15 15:10:02;;;;;;;11.90;1.92;;;;;;;;;;4943222;28;20122;-74
2022/09/15 15:12:33;;;;;;;10.30;1.83;;;;;;;;;;4952301;28;20083;-67
2022/09/15 15:15:01;;;;;;;8.05;1.67;;;;;;;;;;4950524;28;20051;-65
2022/09/15 15:17:37;;;;;;;13.80;1.80;;;;;;;;;;4947436;28;20051;-70
2022/09/15 15:20:09;;;;;;;7.35;1.90;;;;;;;;;;4948405;28;20055;-68